Lawrence, KS

12:45 PM CST on February 12, 2016 (GMT -0600)
Lawrence Municipal | | Change Station
CLOSE
Current Station
Airport
Location: Lawrence,
Elevation: 830 ft
Nearby Weather Stations

Elev 830 ft 39.01 °N, 95.21 °W | Updated 53 minutes ago

Partly Cloudy
Partly Cloudy
38 °F
Feels Like 29 °F
N
16
Wind Variable Wind from NNW
Gusts 21 mph

Today
High -- | Low -- °F
--% Chance of Precip.
Yesterday
High -- | Low -- °F
Precip. -- in
Pressure 30.48 in
Visibility 10.0 miles
Clouds Few 3800 ft
Windchill 29 °F
Dew Point 23 °F
Humidity 55%
Rainfall 0.00 in
Snow Depth Not available.
7:16 AM 5:54 PM
Waxing Crescent, 22% visible
METAR KLWC 121752Z AUTO 34014G18KT 10SM FEW038 03/M05 A3045 RMK AO2 SLP319 T00331050 10033 21039 51018
Pressure 30.48 in
Visibility 10.0 miles
Clouds Few 3800 ft
Windchill 29 °F
Dew Point 23 °F
Humidity 55%
Rainfall 0.00 in
Snow Depth Not available.
7:16 AM 5:54 PM
Waxing Crescent, 22% visible
METAR KLWC 121752Z AUTO 34014G18KT 10SM FEW038 03/M05 A3045 RMK AO2 SLP319 T00331050 10033 21039 51018

10-Day Weather Forecast

Almanac

Astronomy

Feb. 12, 2016 Rise Set
Actual Time
Civil Twilight
Nautical Twilight
Astronomical Twilight
Moon
Length of Visible Light
Length of Day
Tomorrow will be .
, % of the Moon is Illuminated

Today's Extremes

State Highs State Lows

Community

WunderPhotos

Upload Photos

1,892,369 photos uploaded!

WunderBlog® & News

Nearby

Air Quality

  Air Quality AQ Index Pollutant
Not available.

Snow Depth

Station Depth Elevation

Earthquake Activity

City Distance Mag. Time & Date
Minimum magnitude displayed is 2.5.

Coastal Water Temperatures

Place Temperature

Stations

Nearby Weather Stations

Station Location Temp. Windchill Dew Point Humidity Wind Precip. Elev Updated Type
                   

Watches & Warnings

There are currently no watches in effect.